Time;durP1;ratioP1;P1;durP2;ratioP2;P2;SDS_P1;SDS_P2;PMS_P1;PMS_P2;Temp;Humidity;BMP_temperature;BMP_pressure;BME280_temperature;BME280_humidity;BME280_pressure;Samples;Min_cycle;Max_cycle;Signal;HPM_P1;HPM_P2
2022/11/04 00:01:44;;;;;;;24.95;16.70;;;;;;;11.89;100.00;100506.53;5011114;28;20030;-66
2022/11/04 00:04:12;;;;;;;22.00;15.65;;;;;;;11.38;100.00;100447.50;5011620;28;20030;-66
2022/11/04 00:06:38;;;;;;;21.38;14.93;;;;;;;11.12;100.00;100396.38;5011134;28;20040;-67
2022/11/04 00:09:05;;;;;;;21.05;15.80;;;;;;;11.76;100.00;100500.09;5011005;28;20511;-66
2022/11/04 00:14:16;;;;;;;22.98;16.38;;;;;;;11.56;100.00;100492.91;5011367;28;20136;-66
2022/11/04 00:19:26;;;;;;;19.95;15.30;;;;;;;10.72;100.00;100409.16;5011306;28;20511;-67
2022/11/04 00:30:08;;;;;;;20.90;15.40;;;;;;;11.28;100.00;100474.03;5010357;28;20057;-67
2022/11/04 00:35:18;;;;;;;23.17;15.30;;;;;;;11.04;100.00;100396.56;5010451;28;20511;-67
2022/11/04 00:37:45;;;;;;;22.73;16.90;;;;;;;11.04;100.00;100404.19;5009526;28;20026;-67
2022/11/04 00:40:13;;;;;;;21.17;15.50;;;;;;;10.78;100.00;100425.97;5010705;28;20038;-67
2022/11/04 00:42:41;;;;;;;20.65;16.10;;;;;;;11.05;100.00;100458.47;5010552;28;20034;-67
2022/11/04 00:45:07;;;;;;;22.38;16.10;;;;;;;10.55;100.00;100416.31;5009965;28;20057;-67
2022/11/04 00:47:32;;;;;;;26.58;16.77;;;;;;;10.58;100.00;100395.91;5009556;28;20762;-68
2022/11/04 00:49:58;;;;;;;20.75;16.02;;;;;;;10.78;100.00;100387.84;5010852;28;20029;-66
2022/11/04 00:52:23;;;;;;;21.40;16.55;;;;;;;11.23;100.00;100455.50;5010778;28;20044;-67
2022/11/04 00:54:49;;;;;;;23.88;17.05;;;;;;;11.09;100.00;100457.53;5010269;28;20033;-67
2022/11/04 00:57:14;;;;;;;23.52;16.30;;;;;;;11.38;100.00;100462.78;5010631;28;20474;-67
2022/11/04 00:59:40;;;;;;;23.13;15.45;;;;;;;10.89;100.00;100373.19;5010843;28;20050;-68
2022/11/04 01:02:08;;;;;;;24.10;17.02;;;;;;;10.44;100.00;100340.28;5010416;28;20489;-68
2022/11/04 01:04:34;;;;;;;22.65;16.58;;;;;;;10.88;100.00;100456.28;5010498;28;20397;-68
2022/11/04 01:07:00;;;;;;;23.52;17.15;;;;;;;10.80;100.00;100386.94;5009066;28;20101;-68
2022/11/04 01:09:25;;;;;;;24.50;17.30;;;;;;;10.95;100.00;100406.13;5010628;28;20041;-67
2022/11/04 01:11:51;;;;;;;24.30;17.42;;;;;;;10.61;100.00;100398.41;5010259;28;20034;-66
2022/11/04 01:14:17;;;;;;;22.35;17.17;;;;;;;10.51;100.00;100389.28;5009708;28;20112;-67
2022/11/04 01:16:42;;;;;;;26.83;18.20;;;;;;;10.86;100.00;100449.53;5009010;28;20026;-65
2022/11/04 01:19:08;;;;;;;25.02;17.23;;;;;;;10.41;100.00;100385.25;5008927;28;20461;-66
2022/11/04 01:21:34;;;;;;;24.77;17.13;;;;;;;11.15;100.00;100450.56;5008678;28;20033;-65
2022/11/04 01:23:59;;;;;;;24.52;18.10;;;;;;;10.23;100.00;100335.66;5010058;28;20429;-65
2022/11/04 01:26:27;;;;;;;23.42;17.20;;;;;;;10.93;100.00;100439.22;5010163;28;20107;-66
2022/11/04 01:28:54;;;;;;;24.38;18.05;;;;;;;10.94;100.00;100404.44;5009886;28;20033;-69
2022/11/04 01:31:23;;;;;;;27.15;17.55;;;;;;;10.82;100.00;100391.97;5010228;28;20057;-66
2022/11/04 01:33:49;;;;;;;25.90;18.52;;;;;;;11.15;100.00;100431.94;5010275;28;20088;-67
2022/11/04 01:36:16;;;;;;;22.33;17.48;;;;;;;10.81;100.00;100375.06;5010003;28;20056;-67
2022/11/04 01:38:41;;;;;;;24.15;17.73;;;;;;;11.19;100.00;100449.63;5009825;28;20040;-66
2022/11/04 01:41:10;;;;;;;23.90;17.55;;;;;;;10.56;100.00;100396.81;5009963;28;20034;-67
2022/11/04 01:44:12;;;;;;;23.67;17.88;;;;;;;10.12;100.00;100306.28;5009878;28;20060;-66
2022/11/04 01:46:49;;;;;;;25.30;17.95;;;;;;;10.73;100.00;100437.97;5002419;28;20053;-66
2022/11/04 01:49:17;;;;;;;24.02;17.58;;;;;;;11.27;100.00;100435.03;5013824;28;20049;-66
2022/11/04 01:51:45;;;;;;;21.85;16.58;;;;;;;10.73;100.00;100395.59;5013703;28;20199;-66
2022/11/04 01:54:11;;;;;;;20.20;15.57;;;;;;;10.61;100.00;100370.44;5012559;28;20704;-66
2022/11/04 01:56:38;;;;;;;18.45;13.90;;;;;;;10.43;100.00;100450.44;5013791;28;20038;-66
2022/11/04 01:59:10;;;;;;;18.38;12.93;;;;;;;10.65;100.00;100422.03;5013640;28;20041;-67
2022/11/04 02:01:36;;;;;;;23.85;13.00;;;;;;;10.03;100.00;100380.06;5013469;28;20030;-66
2022/11/04 02:06:47;;;;;;;18.25;13.05;;;;;;;10.63;100.00;100439.03;5013369;28;20044;-66
2022/11/04 02:09:14;;;;;;;18.50;13.68;;;;;;;10.40;100.00;100416.59;5013346;28;20460;-67
2022/11/04 02:14:24;;;;;;;19.17;13.05;;;;;;;10.61;100.00;100431.44;5012993;28;20044;-68
2022/11/04 02:16:52;;;;;;;20.65;13.65;;;;;;;10.21;100.00;100406.00;5012954;28;20033;-67
2022/11/04 02:19:43;;;;;;;19.30;13.50;;;;;;;10.38;100.00;100428.50;5011792;28;20030;-65
2022/11/04 02:22:30;;;;;;;21.20;14.05;;;;;;;10.09;100.00;100340.16;5013053;28;20104;-65
2022/11/04 02:25:04;;;;;;;23.33;15.18;;;;;;;10.55;100.00;100426.47;5012931;28;20030;-66
2022/11/04 02:27:51;;;;;;;21.63;15.15;;;;;;;10.27;100.00;100425.34;5013256;28;20030;-65
2022/11/04 02:30:18;;;;;;;22.60;16.13;;;;;;;10.51;100.00;100398.59;5011682;28;20117;-67
2022/11/04 02:33:10;;;;;;;25.17;16.05;;;;;;;10.55;100.00;100410.38;5012872;28;20040;-66
2022/11/04 02:35:49;;;;;;;25.55;17.05;;;;;;;10.22;100.00;100350.94;5012318;28;20528;-66
2022/11/04 02:38:37;;;;;;;25.55;17.60;;;;;;;10.36;100.00;100377.72;5012901;28;20040;-65
2022/11/04 02:41:34;;;;;;;24.90;18.48;;;;;;;10.54;100.00;100378.22;5013196;28;20048;-67
2022/11/04 02:44:15;;;;;;;26.70;18.20;;;;;;;10.40;100.00;100407.28;5004774;28;20049;-66
2022/11/04 02:47:01;;;;;;;28.70;19.02;;;;;;;10.44;100.00;100405.50;5012970;28;20029;-65
2022/11/04 02:49:47;;;;;;;26.05;18.90;;;;;;;9.84;100.00;100328.81;5012446;28;20049;-66
2022/11/04 02:52:24;;;;;;;25.15;18.48;;;;;;;10.56;100.00;100402.72;5012741;28;20057;-65
2022/11/04 02:54:59;;;;;;;28.50;19.08;;;;;;;9.95;100.00;100321.81;5011295;28;20030;-65
2022/11/04 02:57:29;;;;;;;27.10;18.00;;;;;;;10.02;100.00;100333.50;5012148;28;20080;-66
2022/11/04 03:00:05;;;;;;;24.70;17.73;;;;;;;9.66;100.00;100339.31;5012340;28;20487;-65
2022/11/04 03:02:36;;;;;;;27.45;17.20;;;;;;;9.99;100.00;100369.13;5012236;28;20488;-66
2022/11/04 03:05:02;;;;;;;;;;;;;;;10.18;100.00;100405.22;5012837;28;20603;-66
2022/11/04 03:07:36;;;;;;;24.30;16.63;;;;;;;10.20;100.00;100399.22;5011983;28;19916;-66
2022/11/04 03:10:06;;;;;;;27.23;17.33;;;;;;;9.84;100.00;100333.91;5010880;28;20033;-66
2022/11/04 03:12:39;;;;;;;23.90;16.65;;;;;;;9.88;100.00;100325.34;5012537;28;20323;-66
2022/11/04 03:15:10;;;;;;;22.65;17.08;;;;;;;10.00;100.00;100391.13;5010637;28;20026;-66
2022/11/04 03:18:03;;;;;;;23.27;15.48;;;;;;;9.91;100.00;100391.31;5012387;28;20057;-66
2022/11/04 03:20:30;;;;;;;21.30;15.52;;;;;;;10.03;100.00;100380.91;5010737;28;20382;-67
2022/11/04 03:22:59;;;;;;;27.00;15.68;;;;;;;10.05;100.00;100373.25;5011991;28;20053;-66
2022/11/04 03:25:38;;;;;;;25.95;16.50;;;;;;;9.15;100.00;100313.13;5011923;28;20041;-66
2022/11/04 03:28:11;;;;;;;24.02;16.70;;;;;;;9.66;100.00;100402.78;5012293;28;20107;-66
2022/11/04 03:30:44;;;;;;;29.15;19.13;;;;;;;8.93;100.00;100303.38;5012082;28;20036;-66
2022/11/04 03:33:15;;;;;;;29.52;19.30;;;;;;;9.37;100.00;100394.78;5011656;28;20073;-67
2022/11/04 03:35:40;;;;;;;25.05;17.73;;;;;;;9.22;100.00;100360.38;5011836;28;20038;-66
2022/11/04 03:38:06;;;;;;;26.42;17.35;;;;;;;9.21;100.00;100371.38;5012029;28;20393;-66
2022/11/04 03:40:31;;;;;;;26.10;16.85;;;;;;;9.14;100.00;100336.00;5011275;28;20488;-67
2022/11/04 03:43:07;;;;;;;25.25;16.17;;;;;;;9.33;100.00;100395.72;5011559;28;20036;-66
2022/11/04 03:45:33;;;;;;;24.05;16.90;;;;;;;8.95;100.00;100297.44;5011688;28;20033;-66
2022/11/04 03:47:59;;;;;;;21.13;14.73;;;;;;;9.30;100.00;100381.38;5011532;28;20104;-66
2022/11/04 03:50:30;;;;;;;23.65;16.48;;;;;;;9.23;100.00;100389.94;5011531;28;20108;-66
2022/11/04 03:52:57;;;;;;;22.70;15.67;;;;;;;9.43;100.00;100387.06;5010226;28;20104;-66
2022/11/04 03:55:33;;;;;;;20.92;15.38;;;;;;;9.23;100.00;100321.47;5011471;28;20034;-66
2022/11/04 03:58:09;;;;;;;23.08;16.13;;;;;;;9.05;100.00;100318.41;5011586;28;20033;-68
2022/11/04 04:00:44;;;;;;;26.50;16.25;;;;;;;8.50;100.00;100301.50;5011737;28;20057;-66
2022/11/04 04:03:23;;;;;;;26.83;16.40;;;;;;;9.18;100.00;100380.75;5027967;28;20030;-66
2022/11/04 04:05:54;;;;;;;25.27;16.33;;;;;;;9.04;100.00;100306.56;5029931;28;20175;-67
2022/11/04 04:08:41;;;;;;;28.42;16.48;;;;;;;9.45;100.00;100385.34;5028708;28;20121;-66
2022/11/04 04:11:17;;;;;;;27.00;17.35;;;;;;;8.93;100.00;100351.56;5030923;28;20585;-66
2022/11/04 04:14:39;;;;;;;27.02;17.88;;;;;;;9.24;100.00;100375.56;5031202;28;20037;-65
2022/11/04 04:17:30;;;;;;;25.17;17.05;;;;;;;9.48;100.00;100380.25;5019737;28;20037;-66
2022/11/04 04:20:03;;;;;;;26.65;17.20;;;;;;;9.80;100.00;100380.53;5021057;28;20034;-65
2022/11/04 04:22:32;;;;;;;26.85;16.45;;;;;;;9.39;100.00;100371.06;5030547;28;20029;-66
2022/11/04 04:27:47;;;;;;;33.00;18.00;;;;;;;9.21;100.00;100340.13;5030578;28;20041;-66
2022/11/04 04:30:15;;;;;;;26.92;17.13;;;;;;;9.48;100.00;100376.00;5030071;28;20079;-68
2022/11/04 04:32:49;;;;;;;29.48;18.95;;;;;;;9.49;100.00;100369.22;5030546;28;20037;-70
2022/11/04 04:46:28;;;;;;;32.20;20.88;;;;;;;9.88;100.00;100381.22;5050254;28;20498;-68
2022/11/04 04:48:53;;;;;;;30.35;20.45;;;;;;;9.84;100.00;100389.75;5049648;28;20189;-68
2022/11/04 04:51:20;;;;;;;28.73;20.40;;;;;;;9.59;100.00;100373.25;5053986;28;20112;-68
2022/11/04 04:53:46;;;;;;;34.13;22.13;;;;;;;9.53;100.00;100323.47;5050672;28;20124;-71
2022/11/04 04:56:11;;;;;;;30.58;22.17;;;;;;;9.62;100.00;100337.69;5049916;28;20530;-68
2022/11/04 04:58:36;;;;;;;29.80;22.70;;;;;;;9.70;100.00;100368.84;5049809;28;20503;-67
2022/11/04 05:01:03;;;;;;;34.53;23.27;;;;;;;9.78;100.00;100399.19;5049739;28;20468;-68
2022/11/04 05:03:29;;;;;;;33.03;24.08;;;;;;;9.75;100.00;100343.34;5048368;28;20032;-67
2022/11/04 05:05:54;;;;;;;38.13;24.60;;;;;;;9.45;100.00;100339.69;5049898;28;20384;-70
2022/11/04 05:08:19;;;;;;;42.92;26.05;;;;;;;9.63;100.00;100369.81;5049620;28;20033;-70
2022/11/04 05:10:45;;;;;;;37.20;24.92;;;;;;;10.03;100.00;100388.53;5049674;28;20032;-69
2022/11/04 05:13:28;;;;;;;35.33;26.00;;;;;;;9.53;100.00;100340.38;5050300;28;20032;-69
2022/11/04 05:15:56;;;;;;;39.97;25.92;;;;;;;9.39;100.00;100314.41;5037297;28;20444;-68
2022/11/04 05:18:21;;;;;;;37.63;26.73;;;;;;;9.81;100.00;100386.41;5038813;28;20398;-65
2022/11/04 05:20:46;;;;;;;39.65;26.70;;;;;;;9.85;100.00;100381.25;5039242;28;20029;-67
2022/11/04 05:23:13;;;;;;;40.75;27.42;;;;;;;9.92;100.00;100375.22;5040922;28;20037;-66
2022/11/04 05:25:40;;;;;;;36.03;25.98;;;;;;;9.92;100.00;100387.91;5040848;28;20037;-67
2022/11/04 05:28:06;;;;;;;36.00;26.23;;;;;;;10.01;100.00;100379.25;5041254;28;20411;-66
2022/11/04 05:30:31;;;;;;;36.53;27.92;;;;;;;9.91;100.00;100405.69;5041873;28;20029;-66
2022/11/04 05:32:57;;;;;;;39.30;28.85;;;;;;;9.33;100.00;100312.81;5041127;28;20021;-67
2022/11/04 05:35:22;;;;;;;38.50;27.90;;;;;;;9.92;100.00;100328.66;5036029;28;20035;-69
2022/11/04 05:37:48;;;;;;;42.58;29.75;;;;;;;9.37;100.00;100306.00;5029618;28;20144;-68
2022/11/04 05:40:13;;;;;;;41.10;29.10;;;;;;;10.05;100.00;100386.78;5032342;28;20073;-65
2022/11/04 05:42:39;;;;;;;42.75;27.92;;;;;;;10.87;100.00;100372.38;5027686;28;20033;-65
2022/11/04 05:45:05;;;;;;;41.05;27.70;;;;;;;10.21;100.00;100262.88;5012781;28;20057;-67
2022/11/04 05:47:30;;;;;;;43.72;30.20;;;;;;;10.56;100.00;100389.19;5011556;28;20033;-67
2022/11/04 05:49:56;;;;;;;44.67;30.15;;;;;;;10.78;100.00;100334.44;5012132;28;20068;-66
2022/11/04 05:52:21;;;;;;;39.47;28.48;;;;;;;10.05;100.00;100279.28;5013521;28;20117;-67
2022/11/04 05:54:47;;;;;;;45.58;29.60;;;;;;;10.39;100.00;100336.16;5013544;28;20033;-67
2022/11/04 05:57:12;;;;;;;38.17;27.70;;;;;;;11.96;100.00;100401.06;5013917;28;20026;-67
2022/11/04 05:59:38;;;;;;;37.75;28.15;;;;;;;11.42;100.00;100367.66;5013241;28;20484;-67
2022/11/04 06:02:03;;;;;;;42.10;28.73;;;;;;;12.18;100.00;100422.56;5011348;28;20092;-67
2022/11/04 06:04:29;;;;;;;44.45;29.13;;;;;;;12.38;100.00;100364.16;5013046;28;20065;-68
2022/11/04 06:06:54;;;;;;;41.60;27.45;;;;;;;13.01;100.00;100420.09;5013243;28;20034;-67
2022/11/04 06:09:20;;;;;;;43.38;28.88;;;;;;;12.28;100.00;100390.81;5013446;28;20056;-68
2022/11/04 06:11:45;;;;;;;40.55;27.92;;;;;;;12.43;100.00;100389.53;5012832;28;20034;-68
2022/11/04 06:14:11;;;;;;;43.90;28.92;;;;;;;12.49;100.00;100320.50;5011834;28;20424;-67
2022/11/04 06:16:37;;;;;;;50.42;28.98;;;;;;;13.96;100.00;100439.97;5011628;28;20081;-67
2022/11/04 06:19:02;;;;;;;51.65;29.15;;;;;;;13.02;100.00;100365.59;5013189;28;20115;-67
2022/11/04 06:21:30;;;;;;;45.30;27.75;;;;;;;12.62;100.00;100357.50;5012098;28;20130;-66
2022/11/04 06:23:57;;;;;;;41.92;28.13;;;;;;;13.13;100.00;100452.09;5012958;28;20056;-66
2022/11/04 06:26:24;;;;;;;38.85;26.83;;;;;;;13.73;100.00;100332.59;5012924;28;20515;-66
2022/11/04 06:28:50;;;;;;;41.42;27.05;;;;;;;12.92;100.00;100393.13;5012626;28;20036;-68
2022/11/04 06:31:16;;;;;;;34.22;25.75;;;;;;;13.99;100.00;100462.03;5012023;28;20113;-67
2022/11/04 06:33:42;;;;;;;35.20;25.50;;;;;;;13.54;100.00;100363.06;5013185;28;20115;-66
2022/11/04 06:36:11;;;;;;;37.03;25.80;;;;;;;13.70;100.00;100457.91;5012676;28;20492;-67
2022/11/04 06:38:37;;;;;;;37.20;25.98;;;;;;;12.87;100.00;100430.75;5012957;28;20120;-68
2022/11/04 06:41:04;;;;;;;37.97;25.20;;;;;;;13.16;100.00;100417.09;5012793;28;20084;-66
2022/11/04 06:43:30;;;;;;;32.28;25.13;;;;;;;12.89;100.00;100400.06;5011392;28;20115;-66
2022/11/04 06:45:57;;;;;;;37.95;27.27;;;;;;;13.02;100.00;100442.19;5010988;28;20033;-68
2022/11/04 06:48:23;;;;;;;41.78;29.13;;;;;;;13.23;100.00;100463.72;5012650;28;20037;-66
2022/11/04 06:50:49;;;;;;;43.30;30.73;;;;;;;12.69;100.00;100399.81;5012804;28;20057;-67
2022/11/04 06:53:14;;;;;;;40.50;28.17;;;;;;;12.80;100.00;100446.25;5012389;28;20440;-68
2022/11/04 06:55:39;;;;;;;44.78;28.40;;;;;;;12.79;100.00;100396.13;5012360;28;20034;-67
2022/11/04 06:58:05;;;;;;;42.50;27.40;;;;;;;13.41;100.00;100446.06;5012476;28;20022;-69
2022/11/04 07:00:30;;;;;;;39.25;26.52;;;;;;;13.39;100.00;100454.69;5011333;28;20033;-69
2022/11/04 07:02:56;;;;;;;36.83;25.30;;;;;;;13.58;100.00;100443.81;5011099;28;20026;-68
2022/11/04 07:05:22;;;;;;;49.33;27.25;;;;;;;13.64;100.00;100456.41;5012282;28;20057;-70
2022/11/04 07:07:48;;;;;;;36.88;25.77;;;;;;;13.92;100.00;100449.47;5011010;28;20492;-68
2022/11/04 07:10:13;;;;;;;39.22;23.95;;;;;;;13.75;100.00;100441.53;5012444;28;20068;-67
2022/11/04 07:12:39;;;;;;;33.17;23.15;;;;;;;13.41;100.00;100417.97;5012411;28;20030;-66
2022/11/04 07:15:05;;;;;;;34.00;23.95;;;;;;;13.13;100.00;100340.63;5010858;28;20416;-67
2022/11/04 07:17:30;;;;;;;34.15;21.50;;;;;;;13.97;100.00;100438.25;5012550;28;20037;-67
2022/11/04 07:19:55;;;;;;;30.42;21.98;;;;;;;13.47;100.00;100366.69;5010777;28;20665;-68
2022/11/04 07:22:21;;;;;;;29.10;20.55;;;;;;;13.95;100.00;100389.72;5011125;28;20029;-68
2022/11/04 07:24:46;;;;;;;27.77;20.70;;;;;;;14.26;100.00;100440.63;5012212;28;20084;-68
2022/11/04 07:27:12;;;;;;;25.58;19.17;;;;;;;14.40;100.00;100446.13;5011973;28;20483;-68
2022/11/04 07:29:37;;;;;;;27.42;20.83;;;;;;;13.68;100.00;100445.19;5011749;28;20022;-68
2022/11/04 07:32:03;;;;;;;29.30;18.73;;;;;;;14.15;100.00;100423.09;5011768;28;20716;-67
2022/11/04 07:34:28;;;;;;;24.30;18.00;;;;;;;14.40;100.00;100428.22;5010379;28;20037;-68
2022/11/04 07:36:54;;;;;;;24.17;17.30;;;;;;;14.58;100.00;100430.09;5011649;28;20034;-72
2022/11/04 07:39:19;;;;;;;25.05;17.55;;;;;;;14.51;100.00;100446.56;5010315;28;20026;-68
2022/11/04 07:41:44;;;;;;;26.00;17.55;;;;;;;14.46;100.00;100366.59;5011552;28;20021;-68
2022/11/04 07:44:11;;;;;;;23.60;16.40;;;;;;;14.20;100.00;100379.47;5011067;28;20057;-68
2022/11/04 07:46:36;;;;;;;24.42;15.68;;;;;;;14.51;100.00;100410.75;5011633;28;20032;-67
2022/11/04 07:49:02;;;;;;;21.00;14.80;;;;;;;14.54;100.00;100360.28;5011521;28;20116;-66
2022/11/04 07:51:28;;;;;;;19.60;14.90;;;;;;;14.90;100.00;100373.38;5011307;28;20112;-67
2022/11/04 07:53:54;;;;;;;20.98;14.57;;;;;;;14.59;100.00;100408.72;5011414;28;20034;-67
2022/11/04 07:56:22;;;;;;;19.30;15.57;;;;;;;14.91;100.00;100421.16;5009951;28;20514;-67
2022/11/04 07:58:48;;;;;;;23.88;15.35;;;;;;;15.36;100.00;100409.09;5010982;28;20080;-67
2022/11/04 08:01:18;;;;;;;26.52;16.83;;;;;;;15.05;100.00;100387.31;5011239;28;20037;-67
2022/11/04 08:03:44;;;;;;;22.75;15.52;;;;;;;14.51;100.00;100362.13;5011587;28;20064;-68
2022/11/04 08:06:12;;;;;;;22.85;15.02;;;;;;;15.04;100.00;100399.28;5011266;28;20042;-68
2022/11/04 08:08:37;;;;;;;24.02;15.73;;;;;;;15.20;100.00;100351.69;5011521;28;20040;-68
2022/11/04 08:11:15;;;;;;;23.45;15.23;;;;;;;14.97;100.00;100359.47;5011098;28;20026;-68
2022/11/04 08:13:41;;;;;;;19.33;14.05;;;;;;;15.30;100.00;100372.63;5011168;28;20425;-68
2022/11/04 08:16:12;;;;;;;21.02;13.90;;;;;;;15.46;100.00;100392.47;5011260;28;20033;-68
2022/11/04 08:18:38;;;;;;;17.58;13.55;;;;;;;14.91;100.00;100328.16;5011201;28;20557;-67
2022/11/04 08:21:04;;;;;;;18.67;13.85;;;;;;;15.43;100.00;100389.22;5009930;28;20033;-67
2022/11/04 08:23:31;;;;;;;20.90;15.18;;;;;;;15.79;100.00;100385.09;5010714;28;20029;-67
2022/11/04 08:25:57;;;;;;;18.33;14.48;;;;;;;15.24;100.00;100321.63;5009622;28;20037;-68
2022/11/04 08:28:23;;;;;;;20.30;14.00;;;;;;;15.67;100.00;100369.41;5010774;28;20117;-69
2022/11/04 08:31:01;;;;;;;19.40;14.27;;;;;;;15.52;100.00;100376.00;5009752;28;20120;-67
2022/11/04 08:33:28;;;;;;;22.17;15.88;;;;;;;15.88;100.00;100373.63;5012008;28;20061;-68
2022/11/04 08:35:57;;;;;;;20.60;14.93;;;;;;;16.13;100.00;100367.34;5011793;28;20385;-67
2022/11/04 08:38:23;;;;;;;23.55;14.60;;;;;;;15.64;100.00;100339.59;5009095;28;20026;-69
2022/11/04 08:40:48;;;;;;;19.75;13.75;;;;;;;15.19;100.00;100360.25;5009236;28;20045;-68
2022/11/04 08:43:14;;;;;;;23.20;13.63;;;;;;;15.76;100.00;100351.06;5009198;28;20072;-69
2022/11/04 08:45:42;;;;;;;17.98;13.07;;;;;;;15.50;100.00;100242.81;5009408;28;20543;-69
2022/11/04 08:48:08;;;;;;;16.13;12.48;;;;;;;16.34;100.00;100356.09;5010750;28;20026;-68
2022/11/04 08:50:34;;;;;;;20.42;14.38;;;;;;;16.35;100.00;100344.94;5010422;28;20579;-68
2022/11/04 08:53:00;;;;;;;21.88;15.30;;;;;;;16.16;100.00;100248.38;5010504;28;20112;-72
2022/11/04 08:55:28;;;;;;;24.83;17.60;;;;;;;15.71;100.00;100358.94;5010120;28;20168;-69
2022/11/04 08:57:53;;;;;;;20.90;15.13;;;;;;;15.85;100.00;100332.69;5009313;28;20160;-69
2022/11/04 09:00:19;;;;;;;19.15;14.88;;;;;;;15.92;100.00;100321.28;5010516;28;20108;-69
2022/11/04 09:02:45;;;;;;;21.27;14.43;;;;;;;16.54;100.00;100298.75;5009155;28;20043;-68
2022/11/04 09:05:13;;;;;;;19.65;13.38;;;;;;;16.73;100.00;100330.38;5010512;28;20033;-68
2022/11/04 09:07:39;;;;;;;16.85;12.80;;;;;;;16.87;100.00;100337.41;5010380;28;20026;-67
2022/11/04 09:10:05;;;;;;;21.63;13.43;;;;;;;16.71;100.00;100292.81;5010368;28;20056;-68
2022/11/04 09:12:32;;;;;;;21.33;13.25;;;;;;;16.84;100.00;100324.69;5010325;28;20062;-70
2022/11/04 09:14:57;;;;;;;20.17;14.93;;;;;;;16.63;100.00;100276.94;5010425;28;20022;-70
2022/11/04 09:17:23;;;;;;;23.80;14.80;;;;;;;16.78;100.00;100309.59;5010218;28;20527;-68
2022/11/04 09:19:48;;;;;;;23.95;15.10;;;;;;;16.58;100.00;100284.84;5008766;28;20026;-68
2022/11/04 09:22:14;;;;;;;22.25;15.15;;;;;;;16.83;100.00;100305.06;5009996;28;20030;-68
2022/11/04 09:24:39;;;;;;;20.83;14.55;;;;;;;16.86;100.00;100287.78;5010128;28;20037;-68
2022/11/04 09:27:05;;;;;;;25.00;14.38;;;;;;;16.53;100.00;100294.53;5008929;28;20033;-68
2022/11/04 09:29:35;;;;;;;27.23;15.55;;;;;;;17.10;100.00;100294.28;5010280;28;20462;-67
2022/11/04 09:32:03;;;;;;;21.85;14.90;;;;;;;17.23;100.00;100294.50;5009879;28;20037;-69
2022/11/04 09:34:29;;;;;;;20.35;14.77;;;;;;;17.17;100.00;100300.75;5008880;28;20120;-68
2022/11/04 09:36:55;;;;;;;21.63;16.42;;;;;;;16.81;100.00;100242.69;5010130;28;20181;-68
2022/11/04 09:39:22;;;;;;;22.77;16.30;;;;;;;17.30;100.00;100294.13;5010043;28;20022;-69
2022/11/04 09:42:12;;;;;;;30.85;16.55;;;;;;;17.80;100.00;100280.44;5008953;28;20036;-68
2022/11/04 09:44:57;;;;;;;24.40;17.13;;;;;;;17.46;100.00;100278.75;5009961;28;20579;-66
2022/11/04 09:47:24;;;;;;;25.67;17.63;;;;;;;17.23;100.00;100271.38;5009587;28;20041;-69
2022/11/04 09:49:54;;;;;;;25.70;17.50;;;;;;;17.68;100.00;100276.75;5010181;28;20042;-67
2022/11/04 09:52:25;;;;;;;25.45;17.73;;;;;;;17.40;100.00;100214.78;5010159;28;20034;-70
2022/11/04 09:54:57;;;;;;;26.23;18.30;;;;;;;17.62;100.00;100260.81;5008407;28;20076;-69
2022/11/04 09:57:23;;;;;;;26.75;17.00;;;;;;;17.14;100.00;100205.00;5010240;28;20087;-69
2022/11/04 09:59:49;;;;;;;27.27;19.05;;;;;;;17.39;100.00;100210.53;5008284;28;20080;-68
2022/11/04 10:02:33;;;;;;;27.60;20.27;;;;;;;17.64;100.00;100257.25;5010603;28;20037;-67
2022/11/04 10:05:02;;;;;;;25.05;18.02;;;;;;;17.81;100.00;100234.03;5008707;28;20036;-67
2022/11/04 10:07:43;;;;;;;28.58;20.65;;;;;;;18.30;100.00;100244.25;5010957;28;20469;-67
2022/11/04 10:10:17;;;;;;;28.45;20.27;;;;;;;16.68;100.00;100191.09;5013815;28;20034;-68
2022/11/04 10:12:45;;;;;;;31.73;20.73;;;;;;;18.09;100.00;100238.53;5023360;28;20068;-69
2022/11/04 10:15:16;;;;;;;29.05;20.05;;;;;;;17.38;100.00;100160.06;5022255;28;20089;-69
2022/11/04 10:17:42;;;;;;;;;;;;;;;18.39;100.00;100223.13;5032375;28;20137;-70
2022/11/04 10:20:22;;;;;;;30.77;21.03;;;;;;;18.18;100.00;100220.81;5032014;28;20427;-69
2022/11/04 10:22:58;;;;;;;28.80;21.02;;;;;;;18.33;100.00;100211.44;5031380;28;20276;-68
2022/11/04 10:26:19;;;;;;;34.20;22.45;;;;;;;18.88;100.00;100199.66;5033172;28;20025;-71
2022/11/04 10:29:01;;;;;;;28.83;19.65;;;;;;;17.26;100.00;100145.28;5016944;28;20111;-69
2022/11/04 10:31:27;;;;;;;32.72;20.27;;;;;;;18.51;100.00;100143.47;5031686;28;20539;-70
2022/11/04 10:33:54;;;;;;;28.70;20.35;;;;;;;18.22;100.00;100187.22;5032754;28;20103;-70
2022/11/04 10:36:20;;;;;;;26.17;19.80;;;;;;;17.94;100.00;100186.16;5032709;28;20033;-70
2022/11/04 10:38:49;;;;;;;39.72;21.58;;;;;;;18.49;100.00;100153.03;5033111;28;20080;-72
2022/11/04 10:41:34;;;;;;;29.08;20.10;;;;;;;18.54;100.00;100168.22;5031995;28;20034;-68
2022/11/04 10:44:12;;;;;;;27.25;18.70;;;;;;;17.57;100.00;100162.53;5027214;28;20080;-68
2022/11/04 10:47:13;;;;;;;32.42;20.65;;;;;;;18.19;100.00;100158.16;5011497;28;20546;-67
2022/11/04 10:50:19;;;;;;;31.20;21.30;;;;;;;18.31;100.00;100118.00;5011945;28;20041;-69
2022/11/04 10:52:44;;;;;;;27.67;19.73;;;;;;;18.62;100.00;100141.09;5012469;28;20057;-68
2022/11/04 10:55:37;;;;;;;27.98;20.50;;;;;;;18.41;100.00;100093.41;5011041;28;20026;-68
2022/11/04 10:58:19;;;;;;;27.67;19.90;;;;;;;18.58;100.00;100138.81;5012167;28;20057;-69
2022/11/04 11:00:45;;;;;;;32.70;21.40;;;;;;;18.85;100.00;100132.03;5011072;28;20037;-69
2022/11/04 11:03:29;;;;;;;31.13;21.98;;;;;;;17.52;100.00;100085.63;5012125;28;20416;-69
2022/11/04 11:06:14;;;;;;;32.58;22.15;;;;;;;18.32;100.00;100126.56;5012207;28;20100;-69
2022/11/04 11:08:42;;;;;;;32.08;23.17;;;;;;;19.04;100.00;100104.22;5011427;28;20404;-69
2022/11/04 11:11:09;;;;;;;33.10;21.88;;;;;;;19.31;100.00;100112.88;5012071;28;20065;-68
2022/11/04 11:13:38;;;;;;;31.80;23.20;;;;;;;19.05;100.00;100124.75;5012055;28;20034;-71
2022/11/04 11:16:05;;;;;;;31.10;21.15;;;;;;;18.45;100.00;100114.66;5012399;28;20404;-70
2022/11/04 11:18:30;;;;;;;25.20;19.42;;;;;;;18.26;100.00;100108.91;5011681;28;20405;-71
2022/11/04 11:21:20;;;;;;;25.98;20.25;;;;;;;19.22;100.00;100105.69;5011836;28;20040;-70
2022/11/04 11:23:50;;;;;;;27.25;19.98;;;;;;;19.00;100.00;100064.94;5012042;28;20456;-69
2022/11/04 11:26:28;;;;;;;25.95;21.10;;;;;;;19.12;100.00;100091.69;5010864;28;20030;-70
2022/11/04 11:28:56;;;;;;;27.45;19.92;;;;;;;18.41;100.00;100098.53;5012085;28;20030;-69
2022/11/04 11:31:25;;;;;;;29.00;21.85;;;;;;;18.27;100.00;100005.84;5010809;28;20456;-70
2022/11/04 11:34:01;;;;;;;27.17;20.40;;;;;;;18.42;100.00;100058.19;5011916;28;20460;-69
2022/11/04 11:36:32;;;;;;;31.98;20.67;;;;;;;18.55;100.00;100087.47;5011773;28;20033;-69
2022/11/04 11:39:10;;;;;;;25.27;20.27;;;;;;;19.05;100.00;100091.25;5012122;28;20033;-69
2022/11/04 11:41:48;;;;;;;24.23;20.58;;;;;;;18.50;100.00;99987.28;5011739;28;20025;-69
2022/11/04 11:44:37;;;;;;;27.17;20.58;;;;;;;18.57;100.00;100081.31;5010215;28;20144;-70
2022/11/04 11:47:19;;;;;;;31.95;22.67;;;;;;;19.17;100.00;100071.63;5011738;28;20037;-70
2022/11/04 11:49:44;;;;;;;29.55;21.27;;;;;;;19.24;100.00;100064.34;5010190;28;20034;-70
2022/11/04 11:52:30;;;;;;;32.65;21.73;;;;;;;19.39;100.00;100071.97;5011579;28;20096;-70
2022/11/04 11:55:16;;;;;;;28.02;20.85;;;;;;;19.17;100.00;100060.50;5011380;28;20034;-70